Search for airport 
image banner adimage banner adimage banner ad
image banner ad

CA66 - Monterey Bay Academy

Located in Watsonville, United States

ICAO - CA66, IATA -

Data provided by Airmate  

General information

Coordinates: N36°54'22" W121°50'35"
Elevation is 70 feet MSL.
Magnetic variation is 16° East
View others Airports in California

Operational data

Special qualification required
Current time UTC:
Current local time:
Weather at : KWVI - Watsonville Muni ( 6 km )
METAR: KWVI 211253Z AUTO 28005KT 9SM OVC006 13/12 A2994 RMK AO2 SLP140 T01280122
View NOTAMs / SUP AIP / TFR affecting this airport [VIEW]
Communications frequencies: [VIEW]

Runways:

RWY identifierQFULength (ft)Width (ft)SurfaceLDA (ft)
10220050GRASS
28220050GRASS

Airport contact information

Address: Watsonville United States

Satellite view of CA66